sensor_id;sensor_type;location;lat;lon;timestamp;temperature;humidity
3998;DHT22;61314;53.444;9.902;2022-09-03T00:00:16;13.50;99.90
3998;DHT22;61314;53.444;9.902;2022-09-03T00:02:46;13.50;99.90
3998;DHT22;61314;53.444;9.902;2022-09-03T00:13:39;13.50;99.90
3998;DHT22;61314;53.444;9.902;2022-09-03T00:16:12;13.40;99.90
3998;DHT22;61314;53.444;9.902;2022-09-03T06:23:02;11.70;99.90
3998;DHT22;61314;53.444;9.902;2022-09-03T06:25:29;11.60;99.90
3998;DHT22;61314;53.444;9.902;2022-09-03T06:27:57;11.60;99.90
3998;DHT22;61314;53.444;9.902;2022-09-03T06:30:24;11.70;99.90
3998;DHT22;61314;53.444;9.902;2022-09-03T06:32:52;11.70;99.90
3998;DHT22;61314;53.444;9.902;2022-09-03T06:35:19;11.80;99.90
3998;DHT22;61314;53.444;9.902;2022-09-03T06:37:46;11.80;99.90
3998;DHT22;61314;53.444;9.902;2022-09-03T06:40:12;11.90;99.90
3998;DHT22;61314;53.444;9.902;2022-09-03T06:42:39;11.90;99.90
3998;DHT22;61314;53.444;9.902;2022-09-03T06:45:11;12.00;99.90
3998;DHT22;61314;53.444;9.902;2022-09-03T06:47:39;12.00;99.90
3998;DHT22;61314;53.444;9.902;2022-09-03T06:50:05;12.10;99.90
3998;DHT22;61314;53.444;9.902;2022-09-03T06:52:32;12.10;99.90
3998;DHT22;61314;53.444;9.902;2022-09-03T06:54:59;12.10;99.90
3998;DHT22;61314;53.444;9.902;2022-09-03T06:57:26;12.30;99.90
3998;DHT22;61314;53.444;9.902;2022-09-03T06:59:52;12.30;99.90
3998;DHT22;61314;53.444;9.902;2022-09-03T07:02:20;12.40;99.90
3998;DHT22;61314;53.444;9.902;2022-09-03T07:04:48;12.50;99.90
3998;DHT22;61314;53.444;9.902;2022-09-03T07:07:15;12.50;99.90
3998;DHT22;61314;53.444;9.902;2022-09-03T07:09:41;12.60;99.90
3998;DHT22;61314;53.444;9.902;2022-09-03T07:12:13;12.70;99.90
3998;DHT22;61314;53.444;9.902;2022-09-03T07:14:42;12.70;99.90
3998;DHT22;61314;53.444;9.902;2022-09-03T07:17:08;12.80;99.90
3998;DHT22;61314;53.444;9.902;2022-09-03T07:19:35;12.90;99.90
3998;DHT22;61314;53.444;9.902;2022-09-03T07:22:02;12.90;99.90
3998;DHT22;61314;53.444;9.902;2022-09-03T07:24:28;12.90;99.90
3998;DHT22;61314;53.444;9.902;2022-09-03T07:26:55;13.00;99.90
3998;DHT22;61314;53.444;9.902;2022-09-03T07:29:22;13.10;99.90
3998;DHT22;61314;53.444;9.902;2022-09-03T07:31:50;13.20;99.90
3998;DHT22;61314;53.444;9.902;2022-09-03T07:34:18;13.30;99.90
3998;DHT22;61314;53.444;9.902;2022-09-03T07:36:47;13.50;99.90
3998;DHT22;61314;53.444;9.902;2022-09-03T07:39:16;13.40;99.90
3998;DHT22;61314;53.444;9.902;2022-09-03T07:41:44;13.50;99.90
3998;DHT22;61314;53.444;9.902;2022-09-03T07:44:16;13.70;99.90
3998;DHT22;61314;53.444;9.902;2022-09-03T07:46:45;13.70;99.90
3998;DHT22;61314;53.444;9.902;2022-09-03T07:49:13;13.80;99.90
3998;DHT22;61314;53.444;9.902;2022-09-03T07:51:39;13.80;99.90
3998;DHT22;61314;53.444;9.902;2022-09-03T08:36:52;16.90;99.90
3998;DHT22;61314;53.444;9.902;2022-09-03T08:39:19;17.00;99.90
3998;DHT22;61314;53.444;9.902;2022-09-03T08:44:45;17.40;99.90
3998;DHT22;61314;53.444;9.902;2022-09-03T08:47:28;17.70;99.90
3998;DHT22;61314;53.444;9.902;2022-09-03T08:50:09;17.90;99.90
3998;DHT22;61314;53.444;9.902;2022-09-03T08:52:44;18.20;99.90
3998;DHT22;61314;53.444;9.902;2022-09-03T08:57:52;18.60;99.90
3998;DHT22;61314;53.444;9.902;2022-09-03T09:00:20;18.80;99.90
3998;DHT22;61314;53.444;9.902;2022-09-03T09:03:05;19.10;99.90
3998;DHT22;61314;53.444;9.902;2022-09-03T09:06:05;19.10;99.90
3998;DHT22;61314;53.444;9.902;2022-09-03T09:19:34;20.60;99.90
3998;DHT22;61314;53.444;9.902;2022-09-03T09:22:34;20.40;99.90
3998;DHT22;61314;53.444;9.902;2022-09-03T09:25:12;20.80;99.90
3998;DHT22;61314;53.444;9.902;2022-09-03T09:27:51;20.70;99.90
3998;DHT22;61314;53.444;9.902;2022-09-03T09:32:47;21.20;99.90
3998;DHT22;61314;53.444;9.902;2022-09-03T09:35:14;21.30;99.90
3998;DHT22;61314;53.444;9.902;2022-09-03T09:37:46;22.60;99.90
3998;DHT22;61314;53.444;9.902;2022-09-03T09:42:49;21.80;99.90
3998;DHT22;61314;53.444;9.902;2022-09-03T09:45:16;21.90;99.90
3998;DHT22;61314;53.444;9.902;2022-09-03T09:50:19;22.20;99.90
3998;DHT22;61314;53.444;9.902;2022-09-03T09:58:23;22.80;99.90
3998;DHT22;61314;53.444;9.902;2022-09-03T10:03:32;22.80;99.90
3998;DHT22;61314;53.444;9.902;2022-09-03T10:06:07;22.90;99.90
3998;DHT22;61314;53.444;9.902;2022-09-03T10:09:05;22.90;99.90
3998;DHT22;61314;53.444;9.902;2022-09-03T10:11:34;23.10;99.90
3998;DHT22;61314;53.444;9.902;2022-09-03T10:16:39;23.20;93.60
3998;DHT22;61314;53.444;9.902;2022-09-03T10:22:09;23.50;92.50
3998;DHT22;61314;53.444;9.902;2022-09-03T10:27:07;23.50;92.30
3998;DHT22;61314;53.444;9.902;2022-09-03T10:29:35;23.50;92.10
3998;DHT22;61314;53.444;9.902;2022-09-03T10:35:17;23.80;92.60
3998;DHT22;61314;53.444;9.902;2022-09-03T10:44:24;23.70;95.60
3998;DHT22;61314;53.444;9.902;2022-09-03T10:46:28;23.80;94.40
3998;DHT22;61314;53.444;9.902;2022-09-03T10:52:17;23.90;90.00
3998;DHT22;61314;53.444;9.902;2022-09-03T10:55:12;24.10;90.10
3998;DHT22;61314;53.444;9.902;2022-09-03T10:57:49;24.40;93.80
3998;DHT22;61314;53.444;9.902;2022-09-03T11:00:17;24.40;98.90
3998;DHT22;61314;53.444;9.902;2022-09-03T11:03:07;24.30;95.60
3998;DHT22;61314;53.444;9.902;2022-09-03T11:05:47;24.40;92.90
3998;DHT22;61314;53.444;9.902;2022-09-03T11:11:10;24.60;99.90
3998;DHT22;61314;53.444;9.902;2022-09-03T11:13:45;24.60;93.80
3998;DHT22;61314;53.444;9.902;2022-09-03T11:16:16;24.70;91.40
3998;DHT22;61314;53.444;9.902;2022-09-03T11:18:51;24.40;84.10
3998;DHT22;61314;53.444;9.902;2022-09-03T11:21:23;24.50;85.10
3998;DHT22;61314;53.444;9.902;2022-09-03T11:24:03;24.50;85.90
3998;DHT22;61314;53.444;9.902;2022-09-03T11:26:33;24.50;86.60
3998;DHT22;61314;53.444;9.902;2022-09-03T11:29:23;24.60;83.10
3998;DHT22;61314;53.444;9.902;2022-09-03T11:32:04;24.50;82.10
3998;DHT22;61314;53.444;9.902;2022-09-03T11:34:49;24.40;83.00
3998;DHT22;61314;53.444;9.902;2022-09-03T11:45:22;24.80;74.00
3998;DHT22;61314;53.444;9.902;2022-09-03T11:47:49;24.70;71.30
3998;DHT22;61314;53.444;9.902;2022-09-03T11:52:48;24.80;72.20
3998;DHT22;61314;53.444;9.902;2022-09-03T11:57:51;24.80;71.60
3998;DHT22;61314;53.444;9.902;2022-09-03T12:00:18;24.70;73.30
3998;DHT22;61314;53.444;9.902;2022-09-03T12:02:50;24.60;73.20
3998;DHT22;61314;53.444;9.902;2022-09-03T12:05:41;24.50;73.00
3998;DHT22;61314;53.444;9.902;2022-09-03T12:08:44;24.60;72.40
3998;DHT22;61314;53.444;9.902;2022-09-03T12:14:20;24.70;73.60
3998;DHT22;61314;53.444;9.902;2022-09-03T12:22:13;24.80;69.30
3998;DHT22;61314;53.444;9.902;2022-09-03T12:24:41;25.00;69.90
3998;DHT22;61314;53.444;9.902;2022-09-03T12:27:17;24.80;66.20
3998;DHT22;61314;53.444;9.902;2022-09-03T12:29:56;24.90;68.60
3998;DHT22;61314;53.444;9.902;2022-09-03T12:32:28;24.90;86.80
3998;DHT22;61314;53.444;9.902;2022-09-03T12:35:08;24.90;78.10
3998;DHT22;61314;53.444;9.902;2022-09-03T12:37:36;24.90;66.10
3998;DHT22;61314;53.444;9.902;2022-09-03T12:40:26;24.90;66.70
3998;DHT22;61314;53.444;9.902;2022-09-03T12:43:13;25.20;65.80
3998;DHT22;61314;53.444;9.902;2022-09-03T12:46:00;25.20;66.10
3998;DHT22;61314;53.444;9.902;2022-09-03T12:49:01;25.30;65.50
3998;DHT22;61314;53.444;9.902;2022-09-03T12:52:01;25.10;64.20
3998;DHT22;61314;53.444;9.902;2022-09-03T12:54:36;25.10;65.10
3998;DHT22;61314;53.444;9.902;2022-09-03T12:57:07;25.20;64.90
3998;DHT22;61314;53.444;9.902;2022-09-03T12:59:37;25.00;63.60
3998;DHT22;61314;53.444;9.902;2022-09-03T13:02:18;25.10;64.40
3998;DHT22;61314;53.444;9.902;2022-09-03T13:04:46;25.10;64.00
3998;DHT22;61314;53.444;9.902;2022-09-03T13:07:27;25.10;64.30
3998;DHT22;61314;53.444;9.902;2022-09-03T13:10:00;25.00;63.30
3998;DHT22;61314;53.444;9.902;2022-09-03T13:12:32;25.10;63.50
3998;DHT22;61314;53.444;9.902;2022-09-03T13:15:06;25.20;64.70
3998;DHT22;61314;53.444;9.902;2022-09-03T13:17:46;25.20;64.10
3998;DHT22;61314;53.444;9.902;2022-09-03T13:20:39;25.10;62.80
3998;DHT22;61314;53.444;9.902;2022-09-03T13:23:39;25.30;63.80
3998;DHT22;61314;53.444;9.902;2022-09-03T13:29:28;25.00;60.80
3998;DHT22;61314;53.444;9.902;2022-09-03T13:32:06;25.00;62.10
3998;DHT22;61314;53.444;9.902;2022-09-03T13:34:47;25.10;62.80
3998;DHT22;61314;53.444;9.902;2022-09-03T13:37:39;25.00;61.90
3998;DHT22;61314;53.444;9.902;2022-09-03T13:40:15;24.90;64.30
3998;DHT22;61314;53.444;9.902;2022-09-03T13:42:55;24.80;63.10
3998;DHT22;61314;53.444;9.902;2022-09-03T13:48:39;24.60;63.20
3998;DHT22;61314;53.444;9.902;2022-09-03T13:51:28;24.60;63.80
3998;DHT22;61314;53.444;9.902;2022-09-03T13:54:15;24.20;64.00
3998;DHT22;61314;53.444;9.902;2022-09-03T13:59:58;24.00;63.00
3998;DHT22;61314;53.444;9.902;2022-09-03T14:02:50;23.80;63.80
3998;DHT22;61314;53.444;9.902;2022-09-03T14:05:46;23.90;65.00
3998;DHT22;61314;53.444;9.902;2022-09-03T14:11:27;23.90;65.90
3998;DHT22;61314;53.444;9.902;2022-09-03T14:19:41;23.70;65.20
3998;DHT22;61314;53.444;9.902;2022-09-03T14:22:21;23.70;65.10
3998;DHT22;61314;53.444;9.902;2022-09-03T14:24:58;23.60;65.50
3998;DHT22;61314;53.444;9.902;2022-09-03T14:27:28;23.40;65.60
3998;DHT22;61314;53.444;9.902;2022-09-03T14:30:16;23.20;65.20
3998;DHT22;61314;53.444;9.902;2022-09-03T14:35:49;23.20;65.80
3998;DHT22;61314;53.444;9.902;2022-09-03T14:44:03;23.00;67.60
3998;DHT22;61314;53.444;9.902;2022-09-03T14:49:45;23.00;66.40
3998;DHT22;61314;53.444;9.902;2022-09-03T14:58:17;22.80;66.60
3998;DHT22;61314;53.444;9.902;2022-09-03T15:00:51;22.60;66.20
3998;DHT22;61314;53.444;9.902;2022-09-03T15:03:38;22.40;65.90
3998;DHT22;61314;53.444;9.902;2022-09-03T15:06:23;22.40;66.70
3998;DHT22;61314;53.444;9.902;2022-09-03T15:09:16;22.30;67.30
3998;DHT22;61314;53.444;9.902;2022-09-03T15:11:53;22.10;67.10
3998;DHT22;61314;53.444;9.902;2022-09-03T15:14:29;22.10;68.60
3998;DHT22;61314;53.444;9.902;2022-09-03T15:17:17;22.10;68.00
3998;DHT22;61314;53.444;9.902;2022-09-03T15:19:57;21.90;67.30
3998;DHT22;61314;53.444;9.902;2022-09-03T15:22:43;21.90;68.00
3998;DHT22;61314;53.444;9.902;2022-09-03T15:25:43;21.90;69.70
3998;DHT22;61314;53.444;9.902;2022-09-03T15:31:14;21.90;79.30
3998;DHT22;61314;53.444;9.902;2022-09-03T15:34:00;21.80;84.40
3998;DHT22;61314;53.444;9.902;2022-09-03T15:36:45;21.80;77.40
3998;DHT22;61314;53.444;9.902;2022-09-03T15:46:58;21.40;70.10
3998;DHT22;61314;53.444;9.902;2022-09-03T15:49:57;21.40;71.90
3998;DHT22;61314;53.444;9.902;2022-09-03T15:58:25;21.20;71.30
3998;DHT22;61314;53.444;9.902;2022-09-03T16:00:56;21.20;72.00
3998;DHT22;61314;53.444;9.902;2022-09-03T16:03:42;21.10;72.10
3998;DHT22;61314;53.444;9.902;2022-09-03T16:06:32;21.20;81.40
3998;DHT22;61314;53.444;9.902;2022-09-03T16:09:42;21.00;73.00
3998;DHT22;61314;53.444;9.902;2022-09-03T16:12:44;21.10;79.10
3998;DHT22;61314;53.444;9.902;2022-09-03T16:18:21;20.80;72.70
3998;DHT22;61314;53.444;9.902;2022-09-03T16:21:00;20.80;73.60
3998;DHT22;61314;53.444;9.902;2022-09-03T16:23:41;20.90;77.50
3998;DHT22;61314;53.444;9.902;2022-09-03T16:26:14;20.90;90.90
3998;DHT22;61314;53.444;9.902;2022-09-03T16:28:47;20.80;88.00
3998;DHT22;61314;53.444;9.902;2022-09-03T16:37:37;20.50;74.10
3998;DHT22;61314;53.444;9.902;2022-09-03T16:43:18;20.40;75.50
3998;DHT22;61314;53.444;9.902;2022-09-03T16:57:28;20.10;76.30
3998;DHT22;61314;53.444;9.902;2022-09-03T17:00:15;20.10;77.50
3998;DHT22;61314;53.444;9.902;2022-09-03T17:02:56;20.00;76.80
3998;DHT22;61314;53.444;9.902;2022-09-03T17:14:23;19.80;78.60
3998;DHT22;61314;53.444;9.902;2022-09-03T17:19:38;19.70;79.80
3998;DHT22;61314;53.444;9.902;2022-09-03T17:25:13;19.60;78.70
3998;DHT22;61314;53.444;9.902;2022-09-03T17:30:40;19.50;79.70
3998;DHT22;61314;53.444;9.902;2022-09-03T17:33:17;19.60;85.40
3998;DHT22;61314;53.444;9.902;2022-09-03T17:36:17;19.40;80.00
3998;DHT22;61314;53.444;9.902;2022-09-03T17:39:10;19.50;90.50
3998;DHT22;61314;53.444;9.902;2022-09-03T17:41:45;19.40;93.20
3998;DHT22;61314;53.444;9.902;2022-09-03T17:49:29;19.20;84.50
3998;DHT22;61314;53.444;9.902;2022-09-03T17:54:38;19.00;83.60
3998;DHT22;61314;53.444;9.902;2022-09-03T17:57:19;18.90;84.00
3998;DHT22;61314;53.444;9.902;2022-09-03T18:02:38;18.90;99.90
3998;DHT22;61314;53.444;9.902;2022-09-03T18:05:25;18.80;90.30
3998;DHT22;61314;53.444;9.902;2022-09-03T18:08:07;18.70;94.10
3998;DHT22;61314;53.444;9.902;2022-09-03T18:15:54;18.50;90.10
3998;DHT22;61314;53.444;9.902;2022-09-03T18:20:56;18.30;89.30
3998;DHT22;61314;53.444;9.902;2022-09-03T18:30:06;18.10;99.90
3998;DHT22;61314;53.444;9.902;2022-09-03T18:32:52;18.00;96.00
3998;DHT22;61314;53.444;9.902;2022-09-03T18:45:14;17.60;92.00
3998;DHT22;61314;53.444;9.902;2022-09-03T18:48:39;17.40;92.30
3998;DHT22;61314;53.444;9.902;2022-09-03T18:51:49;17.40;92.40
3998;DHT22;61314;53.444;9.902;2022-09-03T19:00:35;17.10;93.30
3998;DHT22;61314;53.444;9.902;2022-09-03T19:03:50;17.10;93.60
3998;DHT22;61314;53.444;9.902;2022-09-03T19:06:56;17.10;98.10
3998;DHT22;61314;53.444;9.902;2022-09-03T19:10:06;16.80;94.00
3998;DHT22;61314;53.444;9.902;2022-09-03T19:13:12;16.80;94.50
3998;DHT22;61314;53.444;9.902;2022-09-03T19:16:12;16.70;94.70
3998;DHT22;61314;53.444;9.902;2022-09-03T19:19:23;16.70;95.00
3998;DHT22;61314;53.444;9.902;2022-09-03T19:25:02;16.60;95.20
3998;DHT22;61314;53.444;9.902;2022-09-03T19:36:59;16.30;96.70
3998;DHT22;61314;53.444;9.902;2022-09-03T19:40:09;16.30;98.50
3998;DHT22;61314;53.444;9.902;2022-09-03T19:43:29;16.10;96.90
3998;DHT22;61314;53.444;9.902;2022-09-03T19:46:34;16.10;97.30
3998;DHT22;61314;53.444;9.902;2022-09-03T19:55:33;15.90;97.50
3998;DHT22;61314;53.444;9.902;2022-09-03T19:58:23;15.90;97.70
3998;DHT22;61314;53.444;9.902;2022-09-03T20:01:11;15.80;97.70
3998;DHT22;61314;53.444;9.902;2022-09-03T20:04:06;15.70;97.60
3998;DHT22;61314;53.444;9.902;2022-09-03T20:06:55;15.80;99.90
3998;DHT22;61314;53.444;9.902;2022-09-03T20:09:42;15.60;98.20
3998;DHT22;61314;53.444;9.902;2022-09-03T20:12:31;15.60;98.50
3998;DHT22;61314;53.444;9.902;2022-09-03T20:15:03;15.60;98.80
3998;DHT22;61314;53.444;9.902;2022-09-03T20:23:29;15.50;98.90
3998;DHT22;61314;53.444;9.902;2022-09-03T20:26:21;15.50;99.90
3998;DHT22;61314;53.444;9.902;2022-09-03T20:31:48;15.30;98.90
3998;DHT22;61314;53.444;9.902;2022-09-03T20:37:27;15.40;99.90
3998;DHT22;61314;53.444;9.902;2022-09-03T20:40:15;15.30;99.90
3998;DHT22;61314;53.444;9.902;2022-09-03T20:42:54;15.30;99.90
3998;DHT22;61314;53.444;9.902;2022-09-03T20:45:24;15.20;99.90
3998;DHT22;61314;53.444;9.902;2022-09-03T20:48:14;15.00;99.60
3998;DHT22;61314;53.444;9.902;2022-09-03T20:56:26;15.00;99.90
3998;DHT22;61314;53.444;9.902;2022-09-03T20:59:22;15.00;99.90
3998;DHT22;61314;53.444;9.902;2022-09-03T21:05:00;14.90;99.90
3998;DHT22;61314;53.444;9.902;2022-09-03T21:07:42;15.00;99.90
3998;DHT22;61314;53.444;9.902;2022-09-03T21:10:32;14.70;99.90
3998;DHT22;61314;53.444;9.902;2022-09-03T21:18:34;14.70;99.90
3998;DHT22;61314;53.444;9.902;2022-09-03T21:23:46;14.80;99.90
3998;DHT22;61314;53.444;9.902;2022-09-03T21:26:28;14.70;99.90
3998;DHT22;61314;53.444;9.902;2022-09-03T21:29:10;14.70;99.90
3998;DHT22;61314;53.444;9.902;2022-09-03T21:34:18;14.70;99.90
3998;DHT22;61314;53.444;9.902;2022-09-03T21:39:39;14.70;99.90
3998;DHT22;61314;53.444;9.902;2022-09-03T21:42:56;14.60;99.90
3998;DHT22;61314;53.444;9.902;2022-09-03T21:47:58;14.20;99.90
3998;DHT22;61314;53.444;9.902;2022-09-03T21:50:33;14.60;99.90
3998;DHT22;61314;53.444;9.902;2022-09-03T21:56:04;14.40;99.90
3998;DHT22;61314;53.444;9.902;2022-09-03T22:01:36;14.40;99.90
3998;DHT22;61314;53.444;9.902;2022-09-03T22:06:51;14.40;99.90
3998;DHT22;61314;53.444;9.902;2022-09-03T22:10:02;14.40;99.90
3998;DHT22;61314;53.444;9.902;2022-09-03T22:15:09;14.40;99.90
3998;DHT22;61314;53.444;9.902;2022-09-03T22:17:50;14.30;99.90
3998;DHT22;61314;53.444;9.902;2022-09-03T22:20:20;14.30;99.90
3998;DHT22;61314;53.444;9.902;2022-09-03T22:22:53;14.30;99.90
3998;DHT22;61314;53.444;9.902;2022-09-03T22:25:51;14.30;99.90
3998;DHT22;61314;53.444;9.902;2022-09-03T22:28:43;14.20;99.90
3998;DHT22;61314;53.444;9.902;2022-09-03T22:31:31;14.20;99.90
3998;DHT22;61314;53.444;9.902;2022-09-03T22:34:43;14.00;99.90
3998;DHT22;61314;53.444;9.902;2022-09-03T22:40:25;14.00;99.90
3998;DHT22;61314;53.444;9.902;2022-09-03T22:43:20;14.10;99.90
3998;DHT22;61314;53.444;9.902;2022-09-03T22:46:11;14.00;99.90
3998;DHT22;61314;53.444;9.902;2022-09-03T22:54:04;13.90;99.90
3998;DHT22;61314;53.444;9.902;2022-09-03T22:56:39;13.90;99.90
3998;DHT22;61314;53.444;9.902;2022-09-03T22:59:24;13.90;99.90
3998;DHT22;61314;53.444;9.902;2022-09-03T23:07:02;13.90;99.90
3998;DHT22;61314;53.444;9.902;2022-09-03T23:09:37;13.90;99.90
3998;DHT22;61314;53.444;9.902;2022-09-03T23:12:18;13.90;99.90
3998;DHT22;61314;53.444;9.902;2022-09-03T23:14:52;13.80;99.90
3998;DHT22;61314;53.444;9.902;2022-09-03T23:17:25;13.80;99.90
3998;DHT22;61314;53.444;9.902;2022-09-03T23:22:32;13.80;99.90
3998;DHT22;61314;53.444;9.902;2022-09-03T23:25:02;13.80;99.90
3998;DHT22;61314;53.444;9.902;2022-09-03T23:27:45;13.70;99.90
3998;DHT22;61314;53.444;9.902;2022-09-03T23:35:12;13.70;99.90
3998;DHT22;61314;53.444;9.902;2022-09-03T23:40:48;13.70;99.90
